createdAt,value
2018-09-17T00:00:36.071Z,11.67
2018-09-17T00:01:36.074Z,11.65
2018-09-17T00:02:36.039Z,11.68
2018-09-17T00:03:36.026Z,11.78
2018-09-17T00:04:36.016Z,11.85
2018-09-17T00:05:36.005Z,11.86
2018-09-17T00:06:36.018Z,11.83
2018-09-17T00:07:35.977Z,11.90
2018-09-17T00:08:35.974Z,11.80
2018-09-17T00:09:35.954Z,11.77
2018-09-17T00:10:35.951Z,11.78
2018-09-17T00:11:35.959Z,11.70
2018-09-17T00:12:35.922Z,11.85
2018-09-17T00:13:35.908Z,11.71
2018-09-17T00:14:35.908Z,11.67
2018-09-17T00:15:35.894Z,11.68
2018-09-17T00:16:35.895Z,11.71
2018-09-17T00:17:35.865Z,11.70
2018-09-17T00:18:35.856Z,11.67
2018-09-17T00:19:35.843Z,11.57
2018-09-17T00:20:35.835Z,11.67
2018-09-17T00:21:35.842Z,11.52
2018-09-17T00:22:35.806Z,11.53
2018-09-17T00:23:35.795Z,11.46
2018-09-17T00:24:35.786Z,11.54
2018-09-17T00:25:35.770Z,11.47
2018-09-17T00:26:35.784Z,11.39
2018-09-17T00:27:35.752Z,11.43
2018-09-17T00:28:35.739Z,11.27
2018-09-17T00:29:35.724Z,11.29
2018-09-17T00:30:35.716Z,11.19
2018-09-17T00:31:35.726Z,11.16
2018-09-17T00:32:35.690Z,11.28
2018-09-17T00:33:35.680Z,11.27
2018-09-17T00:34:35.666Z,11.02
2018-09-17T00:35:35.656Z,11.14
2018-09-17T00:36:35.665Z,11.13
2018-09-17T00:37:35.637Z,10.99
2018-09-17T00:38:35.618Z,11.02
2018-09-17T00:39:35.611Z,10.99
2018-09-17T00:40:35.597Z,10.91
2018-09-17T00:41:35.604Z,10.91
2018-09-17T00:42:35.582Z,10.94
2018-09-17T00:43:35.559Z,10.95
2018-09-17T00:44:35.557Z,10.88
2018-09-17T00:45:35.542Z,10.95
2018-09-17T00:46:35.548Z,10.88
2018-09-17T00:47:35.522Z,10.80
2018-09-17T00:48:35.503Z,10.89
2018-09-17T00:49:35.494Z,10.91
2018-09-17T00:50:35.483Z,10.94
2018-09-17T00:51:35.494Z,10.88
2018-09-17T00:52:35.457Z,10.88
2018-09-17T00:53:35.442Z,10.94
2018-09-17T00:54:35.438Z,10.95
2018-09-17T00:55:35.427Z,10.95
2018-09-17T00:56:35.427Z,10.99
2018-09-17T00:57:35.398Z,11.02
2018-09-17T00:58:35.389Z,11.06
2018-09-17T00:59:35.380Z,10.91
2018-09-17T01:00:35.362Z,10.95
2018-09-17T01:01:35.371Z,10.96
2018-09-17T01:02:35.340Z,10.98
2018-09-17T01:03:35.330Z,10.91
2018-09-17T01:04:35.311Z,11.02
2018-09-17T01:05:35.298Z,10.88
2018-09-17T01:06:35.320Z,10.94
2018-09-17T01:07:35.278Z,10.99
2018-09-17T01:08:35.272Z,10.84
2018-09-17T01:09:35.259Z,10.78
2018-09-17T01:10:35.245Z,10.83
2018-09-17T01:11:35.247Z,10.83
2018-09-17T01:12:35.224Z,10.76
2018-09-17T01:13:35.205Z,10.84
2018-09-17T01:14:35.200Z,10.70
2018-09-17T01:15:35.180Z,10.81
2018-09-17T01:16:35.197Z,10.60
2018-09-17T01:17:35.156Z,10.80
2018-09-17T01:18:35.154Z,10.70
2018-09-17T01:19:35.134Z,10.65
2018-09-17T01:20:35.125Z,10.59
2018-09-17T01:21:35.133Z,10.62
2018-09-17T01:22:35.103Z,10.62
2018-09-17T01:23:35.090Z,10.76
2018-09-17T01:24:35.084Z,10.60
2018-09-17T01:25:35.067Z,10.60
2018-09-17T01:26:35.072Z,10.71
2018-09-17T01:27:35.039Z,10.70
2018-09-17T01:28:35.029Z,10.70
2018-09-17T01:29:35.016Z,10.60
2018-09-17T01:30:35.026Z,10.59
2018-09-17T01:31:35.027Z,10.68
2018-09-17T01:32:34.979Z,10.66
2018-09-17T01:33:34.973Z,10.63
2018-09-17T01:34:34.953Z,10.59
2018-09-17T01:35:34.939Z,10.60
2018-09-17T01:36:34.960Z,10.68
2018-09-17T01:37:34.916Z,10.65
2018-09-17T01:38:34.913Z,10.71
2018-09-17T01:39:34.893Z,10.59
2018-09-17T01:40:34.879Z,10.74
2018-09-17T01:41:34.897Z,10.92
2018-09-17T01:42:34.853Z,10.89
2018-09-17T01:43:34.849Z,10.91
2018-09-17T01:44:34.833Z,11.03
2018-09-17T01:45:34.819Z,11.10
2018-09-17T01:46:34.838Z,11.06
2018-09-17T01:47:34.794Z,11.17
2018-09-17T01:48:34.790Z,11.13
2018-09-17T01:49:34.768Z,11.10
2018-09-17T01:50:34.766Z,11.14
2018-09-17T01:51:34.776Z,11.29
2018-09-17T01:52:34.734Z,11.19
2018-09-17T01:53:34.723Z,11.21
2018-09-17T01:54:34.714Z,11.29
2018-09-17T01:55:34.707Z,11.28
2018-09-17T01:56:34.707Z,11.27
2018-09-17T01:57:34.683Z,11.35
2018-09-17T01:58:34.663Z,11.34
2018-09-17T01:59:34.654Z,11.29
2018-09-17T02:00:34.648Z,11.28
2018-09-17T02:01:34.656Z,11.29
2018-09-17T02:02:34.623Z,11.34
2018-09-17T02:03:34.608Z,11.29
2018-09-17T02:04:34.595Z,11.32
2018-09-17T02:05:34.588Z,11.31
2018-09-17T02:06:34.606Z,11.24
2018-09-17T02:07:34.560Z,11.35
2018-09-17T02:08:34.590Z,11.25
2018-09-17T02:09:34.598Z,11.36
2018-09-17T02:10:34.527Z,11.35
2018-09-17T02:11:34.517Z,11.36
2018-09-17T02:12:34.527Z,11.25
2018-09-17T02:13:34.486Z,11.38
2018-09-17T02:14:34.485Z,11.27
2018-09-17T02:15:34.466Z,11.16
2018-09-17T02:16:34.458Z,11.31
2018-09-17T02:17:34.442Z,11.27
2018-09-17T02:18:34.450Z,11.34
2018-09-17T02:19:34.426Z,11.28
2018-09-17T02:20:34.405Z,11.25
2018-09-17T02:21:34.397Z,11.13
2018-09-17T02:22:34.388Z,11.16
2018-09-17T02:23:34.394Z,11.17
2018-09-17T02:24:34.367Z,11.10
2018-09-17T02:25:34.354Z,11.14
2018-09-17T02:26:34.338Z,11.11
2018-09-17T02:27:34.336Z,11.17
2018-09-17T02:28:34.338Z,11.09
2018-09-17T02:29:34.309Z,11.35
2018-09-17T02:30:34.301Z,11.27
2018-09-17T02:31:34.281Z,11.28
2018-09-17T02:32:34.273Z,11.27
2018-09-17T02:33:34.259Z,11.25
2018-09-17T02:34:34.272Z,11.29
2018-09-17T02:35:34.235Z,11.31
2018-09-17T02:36:34.218Z,11.27
2018-09-17T02:37:34.213Z,11.34
2018-09-17T02:38:34.198Z,11.28
2018-09-17T02:39:34.196Z,11.32
2018-09-17T02:40:34.202Z,11.28
2018-09-17T02:41:34.166Z,11.27
2018-09-17T02:42:34.148Z,11.27
2018-09-17T02:43:34.136Z,11.24
2018-09-17T02:44:34.131Z,11.25
2018-09-17T02:45:34.110Z,11.14
2018-09-17T02:46:34.138Z,11.16
2018-09-17T02:47:34.093Z,11.24
2018-09-17T02:48:34.081Z,11.25
2018-09-17T02:49:34.068Z,11.20
2018-09-17T02:50:34.059Z,11.32
2018-09-17T02:51:34.043Z,11.27
2018-09-17T02:52:34.056Z,11.14
2018-09-17T02:53:34.083Z,11.16
2018-09-17T02:54:34.011Z,11.07
2018-09-17T02:55:33.993Z,11.14
2018-09-17T02:56:33.989Z,11.17
2018-09-17T05:53:49.160Z,11.20
2018-09-17T05:54:49.083Z,11.17
2018-09-17T05:55:49.062Z,11.20
2018-09-17T05:56:49.054Z,11.20
2018-09-17T05:57:49.048Z,11.20
2018-09-17T05:58:49.030Z,11.28
2018-09-17T05:59:49.046Z,11.27
2018-09-17T06:00:49.004Z,11.20
2018-09-17T06:01:49.003Z,11.31
2018-09-17T06:02:48.983Z,11.28
2018-09-17T06:03:48.980Z,11.38
2018-09-17T06:04:48.983Z,11.39
2018-09-17T06:05:48.957Z,11.54
2018-09-17T06:06:48.984Z,11.50
2018-09-17T06:07:48.929Z,11.46
2018-09-17T06:08:48.914Z,11.50
2018-09-17T06:09:49.013Z,11.64
2018-09-17T06:10:48.897Z,11.74
2018-09-17T06:11:48.955Z,11.68
2018-09-17T06:12:48.876Z,11.75
2018-09-17T06:13:48.861Z,11.83
2018-09-17T06:14:48.845Z,11.78
2018-09-17T06:15:48.870Z,11.83
2018-09-17T06:16:48.825Z,11.94
2018-09-17T06:17:48.819Z,11.99
2018-09-17T06:18:48.816Z,12.11
2018-09-17T06:19:48.790Z,12.01
2018-09-17T06:20:48.798Z,12.06
2018-09-17T06:21:48.775Z,12.19
2018-09-17T06:22:48.755Z,12.19
2018-09-17T06:23:48.745Z,12.29
2018-09-17T06:24:48.733Z,12.29
2018-09-17T06:25:48.748Z,12.33
2018-09-17T06:26:48.711Z,12.41
2018-09-17T06:27:48.702Z,12.39
2018-09-17T06:28:48.775Z,12.38
2018-09-17T06:29:48.674Z,12.46
2018-09-17T06:30:48.664Z,12.56
2018-09-17T06:31:48.677Z,12.67
2018-09-17T06:32:48.636Z,12.69
2018-09-17T06:33:48.634Z,12.79
2018-09-17T06:34:48.620Z,12.87
2018-09-17T06:35:48.604Z,12.84
2018-09-17T06:36:48.622Z,13.06
2018-09-17T06:37:48.586Z,13.00
2018-09-17T06:38:48.576Z,13.03
2018-09-17T06:39:48.554Z,13.22
2018-09-17T06:40:48.543Z,13.25
2018-09-17T06:41:48.540Z,13.25
2018-09-17T06:42:48.560Z,13.38
2018-09-17T06:43:48.511Z,13.49
2018-09-17T06:44:48.504Z,13.51
2018-09-17T06:45:48.496Z,13.49
2018-09-17T06:46:48.480Z,13.62
2018-09-17T06:47:48.496Z,13.63
2018-09-17T06:48:48.455Z,13.77
2018-09-17T06:49:48.445Z,13.91
2018-09-17T06:50:48.436Z,13.99
2018-09-17T06:51:48.418Z,14.06
2018-09-17T06:52:48.406Z,14.19
2018-09-17T06:53:48.448Z,14.38
2018-09-17T06:54:48.384Z,14.43
2018-09-17T06:55:48.384Z,14.44
2018-09-17T06:56:48.360Z,14.54
2018-09-17T06:57:48.353Z,14.80
2018-09-17T06:58:48.342Z,14.75
2018-09-17T06:59:48.351Z,15.02
2018-09-17T07:00:48.313Z,14.93
2018-09-17T07:01:48.309Z,15.06
2018-09-17T07:02:48.291Z,15.28
2018-09-17T07:03:48.283Z,15.35
2018-09-17T07:04:48.289Z,15.42
2018-09-17T07:05:48.266Z,15.41
2018-09-17T07:06:48.242Z,15.48
2018-09-17T07:07:48.240Z,15.63
2018-09-17T07:08:48.222Z,15.67
2018-09-17T07:09:48.235Z,15.76
2018-09-17T07:10:48.204Z,15.96
2018-09-17T07:11:48.185Z,16.06
2018-09-17T07:12:48.178Z,16.26
2018-09-17T07:13:48.170Z,16.20
2018-09-17T07:14:48.177Z,16.26
2018-09-17T07:15:48.149Z,16.48
2018-09-17T07:16:48.126Z,16.55
2018-09-17T07:17:48.125Z,16.58
2018-09-17T07:18:48.110Z,16.73
2018-09-17T07:19:48.095Z,16.81
2018-09-17T07:20:48.118Z,16.95
2018-09-17T07:21:48.071Z,16.99
2018-09-17T07:22:48.063Z,17.04
2018-09-17T07:23:48.054Z,17.07
2018-09-17T07:24:48.066Z,17.23
2018-09-17T07:25:48.033Z,17.40
2018-09-17T07:26:48.020Z,17.48
2018-09-17T07:27:48.004Z,17.53
2018-09-17T07:28:47.993Z,17.70
2018-09-17T07:29:47.983Z,17.79
2018-09-17T07:30:47.991Z,17.92
2018-09-17T07:31:47.960Z,18.18
2018-09-17T07:32:47.945Z,18.09
2018-09-17T07:33:47.936Z,18.07
2018-09-17T07:34:47.932Z,18.21
2018-09-17T07:35:47.939Z,18.13
2018-09-17T07:36:47.903Z,18.19
2018-09-17T07:37:47.887Z,18.33
2018-09-17T07:38:47.875Z,18.40
2018-09-17T07:39:47.872Z,18.44
2018-09-17T07:40:47.881Z,18.46
2018-09-17T07:41:47.871Z,18.47
2018-09-17T07:42:47.839Z,18.74
2018-09-17T07:43:47.821Z,18.74
2018-09-17T07:44:47.814Z,18.80
2018-09-17T07:45:47.805Z,18.87
2018-09-17T07:46:47.791Z,18.98
2018-09-17T07:47:47.832Z,19.06
2018-09-17T07:48:47.767Z,19.24
2018-09-17T07:49:47.760Z,19.32
2018-09-17T07:50:47.746Z,19.33
2018-09-17T07:51:47.729Z,19.35
2018-09-17T07:52:47.758Z,19.40
2018-09-17T07:53:47.714Z,19.60
2018-09-17T07:54:47.701Z,19.73
2018-09-17T07:55:47.679Z,20.03
2018-09-17T07:56:47.672Z,19.98
2018-09-17T07:57:47.660Z,20.08
2018-09-17T07:58:47.727Z,20.31
2018-09-17T07:59:47.636Z,20.38
2018-09-17T08:00:47.631Z,20.46
2018-09-17T08:01:47.612Z,20.61
2018-09-17T08:02:47.607Z,20.81
2018-09-17T08:03:47.589Z,20.98
2018-09-17T08:04:47.599Z,20.99
2018-09-17T08:05:47.648Z,21.26
2018-09-17T08:06:47.558Z,21.21
2018-09-17T08:07:47.553Z,21.48
2018-09-17T08:08:47.531Z,21.45
2018-09-17T08:09:47.557Z,21.57
2018-09-17T08:10:47.509Z,21.76
2018-09-17T08:11:47.507Z,21.67
2018-09-17T08:12:47.491Z,21.83
2018-09-17T08:13:47.482Z,21.90
2018-09-17T08:14:47.473Z,21.99
2018-09-17T08:15:47.475Z,22.32
2018-09-17T08:16:47.446Z,22.47
2018-09-17T08:17:47.434Z,22.52
2018-09-17T08:18:47.418Z,22.59
2018-09-17T08:19:47.471Z,22.77
2018-09-17T08:20:47.427Z,22.78
2018-09-17T08:21:47.394Z,22.96
2018-09-17T08:22:47.380Z,22.87
2018-09-17T08:23:47.372Z,23.19
2018-09-17T08:24:47.365Z,23.34
2018-09-17T08:25:47.340Z,23.45
2018-09-17T08:26:47.364Z,23.40
2018-09-17T08:27:47.325Z,23.53
2018-09-17T08:28:47.314Z,23.53
2018-09-17T08:29:47.302Z,23.60
2018-09-17T08:30:47.284Z,23.58
2018-09-17T08:31:47.283Z,23.64
2018-09-17T08:32:47.304Z,23.82
2018-09-17T08:33:47.257Z,23.85
2018-09-17T08:34:47.250Z,23.97
2018-09-17T08:35:47.230Z,24.07
2018-09-17T08:36:47.225Z,24.29
2018-09-17T08:37:47.213Z,24.22
2018-09-17T08:38:47.226Z,24.38
2018-09-17T08:39:47.187Z,24.32
2018-09-17T08:40:47.181Z,24.44
2018-09-17T08:41:47.168Z,24.54
2018-09-17T08:42:47.154Z,24.60
2018-09-17T08:43:47.179Z,24.67
2018-09-17T08:44:47.132Z,24.67
2018-09-17T08:45:47.131Z,24.76
2018-09-17T08:46:47.129Z,24.85
2018-09-17T08:47:47.107Z,24.85
2018-09-17T08:48:47.115Z,24.90
2018-09-17T08:49:47.107Z,24.83
2018-09-17T08:50:47.075Z,24.77
2018-09-17T08:51:47.057Z,24.91
2018-09-17T08:52:47.116Z,25.12
2018-09-17T08:53:47.033Z,25.05
2018-09-17T08:54:47.026Z,25.07
2018-09-17T08:55:47.041Z,25.12
2018-09-17T08:56:47.000Z,25.32
2018-09-17T08:57:46.998Z,25.37
2018-09-17T08:58:46.984Z,25.30
2018-09-17T08:59:46.967Z,25.28
2018-09-17T09:00:46.981Z,25.38
2018-09-17T09:01:46.952Z,25.43
2018-09-17T09:02:46.937Z,25.59
2018-09-17T09:03:46.924Z,25.61
2018-09-17T09:04:46.915Z,25.71
2018-09-17T09:05:46.925Z,25.72
2018-09-17T09:06:46.893Z,25.90
2018-09-17T09:07:46.889Z,26.11
2018-09-17T09:08:46.878Z,26.22
2018-09-17T09:09:46.861Z,26.29
2018-09-17T09:10:46.895Z,26.29
2018-09-17T09:11:46.843Z,26.36
2018-09-17T09:12:46.826Z,26.46
2018-09-17T09:13:46.818Z,26.61
2018-09-17T09:14:46.814Z,26.68
2018-09-17T09:15:46.845Z,26.79
2018-09-17T09:16:46.802Z,26.91
2018-09-17T09:17:46.782Z,26.84
2018-09-17T09:18:46.767Z,27.10
2018-09-17T09:19:46.757Z,27.10
2018-09-17T09:20:46.745Z,27.23
2018-09-17T09:21:46.760Z,27.19
2018-09-17T09:22:46.718Z,27.42
2018-09-17T09:23:46.709Z,27.51
2018-09-17T09:24:46.699Z,27.67
2018-09-17T09:25:46.693Z,27.79
2018-09-17T09:26:46.675Z,27.98
2018-09-17T09:27:46.696Z,27.88
2018-09-17T09:28:46.651Z,27.96
2018-09-17T09:29:46.648Z,28.09
2018-09-17T09:30:46.633Z,28.40
2018-09-17T09:31:46.628Z,28.47
2018-09-17T09:32:46.619Z,28.62
2018-09-17T09:33:46.619Z,28.80
2018-09-17T09:34:46.592Z,28.97
2018-09-17T09:35:46.584Z,29.13
2018-09-17T09:36:46.567Z,29.29
2018-09-17T09:37:46.558Z,29.50
2018-09-17T09:38:46.579Z,29.65
2018-09-17T09:39:46.537Z,29.77
2018-09-17T09:40:46.527Z,29.90
2018-09-17T09:41:46.523Z,30.02
2018-09-17T09:42:46.502Z,30.02
2018-09-17T09:43:46.504Z,30.05
2018-09-17T09:44:46.509Z,30.09
2018-09-17T09:45:46.478Z,30.26
2018-09-17T09:46:46.473Z,30.26
2018-09-17T09:47:46.455Z,30.33
2018-09-17T09:48:46.474Z,30.00
2018-09-17T09:49:46.431Z,29.84
2018-09-17T09:50:46.426Z,29.82
2018-09-17T09:51:46.417Z,29.93
2018-09-17T09:52:46.415Z,29.87
2018-09-17T09:53:46.391Z,29.97
2018-09-17T09:54:46.409Z,30.18
2018-09-17T09:55:46.364Z,30.27
2018-09-17T09:56:46.382Z,30.26
2018-09-17T09:57:46.344Z,30.30
2018-09-17T09:58:46.335Z,30.34
2018-09-17T09:59:46.357Z,30.11
2018-09-17T10:00:46.313Z,30.00
2018-09-17T10:01:46.309Z,29.87
2018-09-17T10:02:46.307Z,29.75
2018-09-17T10:03:46.285Z,29.71
2018-09-17T10:04:46.280Z,29.62
2018-09-17T10:05:46.287Z,29.57
2018-09-17T10:06:46.256Z,29.70
2018-09-17T10:07:46.242Z,29.66
2018-09-17T10:08:46.233Z,29.57
2018-09-17T10:09:46.225Z,29.20
2018-09-17T10:10:46.210Z,29.20
2018-09-17T10:11:46.226Z,29.41
2018-09-17T10:12:46.189Z,29.34
2018-09-17T10:13:46.175Z,29.41
2018-09-17T10:14:46.160Z,29.63
2018-09-17T10:15:46.162Z,29.68
2018-09-17T10:16:46.143Z,29.72
2018-09-17T10:17:46.159Z,29.89
2018-09-17T10:18:46.128Z,30.05
2018-09-17T10:19:46.108Z,30.12
2018-09-17T10:20:46.102Z,30.23
2018-09-17T10:21:46.096Z,30.40
2018-09-17T10:22:46.122Z,30.34
2018-09-17T10:23:46.075Z,30.26
2018-09-17T10:24:46.064Z,30.21
2018-09-17T10:25:46.046Z,30.27
2018-09-17T10:26:46.041Z,30.34
2018-09-17T10:27:46.031Z,30.37
2018-09-17T10:28:46.042Z,30.24
2018-09-17T10:29:46.050Z,30.19
2018-09-17T10:30:45.998Z,30.19
2018-09-17T10:31:45.991Z,30.33
2018-09-17T10:32:45.975Z,30.45
2018-09-17T10:33:46.004Z,30.24
2018-09-17T10:34:45.958Z,30.29
2018-09-17T10:35:45.952Z,30.54
2018-09-17T10:36:45.942Z,30.49
2018-09-17T10:37:45.928Z,30.75
2018-09-17T10:38:45.921Z,30.80
2018-09-17T10:39:45.938Z,30.78
2018-09-17T10:40:45.898Z,30.87
2018-09-17T10:41:45.890Z,31.01
2018-09-17T10:42:45.874Z,31.21
2018-09-17T10:43:45.872Z,30.93
2018-09-17T10:44:45.863Z,30.99
2018-09-17T10:45:45.874Z,30.87
2018-09-17T10:46:45.834Z,31.04
2018-09-17T10:47:45.832Z,30.67
2018-09-17T10:48:45.821Z,30.71
2018-09-17T10:49:45.809Z,30.94
2018-09-17T10:50:45.827Z,31.12
2018-09-17T10:51:45.788Z,31.26
2018-09-17T10:52:45.784Z,31.31
2018-09-17T10:53:45.773Z,31.26
2018-09-17T10:54:45.758Z,31.48
2018-09-17T10:55:45.758Z,31.70
2018-09-17T10:56:45.764Z,31.80
2018-09-17T10:57:45.723Z,31.68
2018-09-17T10:58:45.715Z,31.50
2018-09-17T10:59:45.710Z,31.27
2018-09-17T11:00:45.696Z,31.43
2018-09-17T11:01:45.689Z,31.62
2018-09-17T11:02:45.709Z,31.84
2018-09-17T11:03:45.663Z,32.02
2018-09-17T11:04:45.660Z,32.03
2018-09-17T11:05:45.649Z,31.91
2018-09-17T11:06:45.638Z,31.77
2018-09-17T11:07:45.662Z,31.46
2018-09-17T11:08:45.636Z,31.27
2018-09-17T11:09:45.608Z,31.38
2018-09-17T11:10:45.597Z,31.35
2018-09-17T11:11:45.588Z,31.40
2018-09-17T11:12:45.577Z,31.30
2018-09-17T11:13:45.600Z,31.40
2018-09-17T11:14:45.557Z,31.54
2018-09-17T11:15:45.542Z,31.76
2018-09-17T11:16:45.537Z,32.14
2018-09-17T11:17:45.623Z,32.47
2018-09-17T11:18:45.521Z,32.71
2018-09-17T11:19:45.528Z,32.93
2018-09-17T11:20:45.503Z,32.84
2018-09-17T11:21:45.477Z,32.81
2018-09-17T11:22:45.472Z,33.03
2018-09-17T11:23:45.484Z,33.26
2018-09-17T11:24:45.481Z,33.45
2018-09-17T11:25:45.442Z,33.85
2018-09-17T11:26:45.434Z,33.82
2018-09-17T11:27:45.429Z,33.85
2018-09-17T11:28:45.417Z,33.89
2018-09-17T11:29:45.399Z,33.31
2018-09-17T11:30:45.431Z,33.39
2018-09-17T11:31:45.378Z,33.36
2018-09-17T11:32:45.375Z,33.58
2018-09-17T11:33:45.373Z,33.48
2018-09-17T11:34:45.358Z,33.37
2018-09-17T11:35:45.340Z,33.01
2018-09-17T11:36:45.355Z,33.20
2018-09-17T11:37:45.329Z,33.37
2018-09-17T11:38:45.317Z,33.68
2018-09-17T11:39:45.304Z,34.01
2018-09-17T11:40:45.327Z,34.36
2018-09-17T11:41:45.316Z,34.51
2018-09-17T11:42:45.279Z,34.42
2018-09-17T11:43:45.259Z,34.20
2018-09-17T11:44:45.256Z,34.24
2018-09-17T11:45:45.242Z,34.11
2018-09-17T11:46:45.242Z,33.98
2018-09-17T11:47:45.256Z,33.90
2018-09-17T11:48:45.210Z,33.95
2018-09-17T11:49:45.214Z,33.98
2018-09-17T11:50:45.191Z,34.02
2018-09-17T11:51:45.189Z,34.04
2018-09-17T11:52:45.181Z,34.05
2018-09-17T11:53:45.206Z,34.19
2018-09-17T11:54:45.157Z,34.42
2018-09-17T11:55:45.146Z,34.42
2018-09-17T11:56:45.135Z,34.27
2018-09-17T11:57:45.129Z,34.46
2018-09-17T11:58:45.151Z,34.64
2018-09-17T11:59:45.104Z,34.83
2018-09-17T12:00:45.152Z,35.08
2018-09-17T12:01:45.100Z,35.21
2018-09-17T12:02:45.301Z,35.44
2018-09-17T12:03:45.983Z,35.67
2018-09-17T12:04:46.982Z,35.76
2018-09-17T12:05:45.077Z,35.55
2018-09-17T12:06:45.041Z,35.21
2018-09-17T12:07:45.030Z,34.89
2018-09-17T12:08:45.020Z,34.73
2018-09-17T12:09:45.007Z,34.63
2018-09-17T12:10:45.020Z,34.58
2018-09-17T12:11:44.999Z,34.66
2018-09-17T12:12:44.978Z,34.80
2018-09-17T12:13:44.966Z,35.01
2018-09-17T12:14:44.960Z,35.25
2018-09-17T12:15:44.964Z,35.40
2018-09-17T12:16:44.929Z,35.60
2018-09-17T12:17:44.925Z,35.82
2018-09-17T12:18:44.911Z,35.57
2018-09-17T12:19:44.906Z,35.30
2018-09-17T12:20:44.923Z,34.50
2018-09-17T12:21:44.892Z,34.02
2018-09-17T12:22:44.902Z,34.05
2018-09-17T12:23:44.865Z,33.97
2018-09-17T12:24:44.928Z,34.16
2018-09-17T12:25:44.870Z,34.20
2018-09-17T12:26:44.874Z,34.66
2018-09-17T12:27:44.830Z,34.91
2018-09-17T12:28:44.816Z,34.79
2018-09-17T12:29:44.839Z,34.88
2018-09-17T12:30:44.828Z,34.94
2018-09-17T12:31:44.808Z,35.14
2018-09-17T12:32:44.778Z,35.45
2018-09-17T12:33:44.851Z,35.62
2018-09-17T12:34:44.761Z,35.91
2018-09-17T12:35:44.749Z,36.07
2018-09-17T12:36:44.835Z,36.21
2018-09-17T12:37:44.731Z,36.52
2018-09-17T12:38:44.722Z,36.38
2018-09-17T12:39:44.703Z,35.88
2018-09-17T12:40:44.693Z,35.57
2018-09-17T12:41:44.692Z,35.67
2018-09-17T12:42:44.700Z,35.82
2018-09-17T12:43:44.845Z,36.08
2018-09-17T12:44:44.660Z,36.31
2018-09-17T12:45:44.694Z,36.30
2018-09-17T12:46:44.637Z,36.39
2018-09-17T12:47:44.660Z,36.63
2018-09-17T12:48:44.613Z,36.58
2018-09-17T12:49:44.724Z,36.75
2018-09-17T12:50:44.592Z,36.75
2018-09-17T12:51:44.592Z,36.61
2018-09-17T12:52:44.573Z,36.57
2018-09-17T12:53:44.604Z,36.57
2018-09-17T12:54:44.559Z,36.76
2018-09-17T12:55:44.657Z,36.73
2018-09-17T12:56:44.538Z,36.54
2018-09-17T12:57:44.530Z,36.56
2018-09-17T12:58:44.537Z,36.52
2018-09-17T12:59:44.540Z,36.54
2018-09-17T13:00:44.495Z,36.60
2018-09-17T13:01:44.663Z,36.48
2018-09-17T13:02:44.480Z,36.54
2018-09-17T13:03:44.469Z,36.60
2018-09-17T13:04:44.462Z,36.48
2018-09-17T13:05:44.475Z,36.33
2018-09-17T13:06:44.444Z,36.14
2018-09-17T13:07:44.451Z,35.70
2018-09-17T13:08:44.418Z,35.36
2018-09-17T13:09:44.414Z,35.14
2018-09-17T13:10:44.437Z,34.80
2018-09-17T13:11:44.385Z,34.31
2018-09-17T13:12:44.377Z,33.76
2018-09-17T13:13:44.375Z,33.46
2018-09-17T13:14:44.375Z,33.34
2018-09-17T13:15:44.348Z,33.22
2018-09-17T13:16:44.367Z,32.92
2018-09-17T13:17:44.337Z,32.66
2018-09-17T13:18:44.324Z,32.84
2018-09-17T13:19:44.304Z,32.96
2018-09-17T13:20:44.293Z,33.29
2018-09-17T13:21:44.293Z,33.46
2018-09-17T13:22:44.301Z,33.42
2018-09-17T13:23:44.268Z,33.46
2018-09-17T13:24:44.269Z,33.55
2018-09-17T13:25:44.254Z,33.70
2018-09-17T13:26:44.250Z,34.08
2018-09-17T13:27:44.253Z,34.22
2018-09-17T13:28:44.223Z,34.38
2018-09-17T13:29:44.214Z,34.60
2018-09-17T13:30:44.225Z,34.79
2018-09-17T13:31:44.184Z,34.79
2018-09-17T13:32:44.180Z,34.56
2018-09-17T13:33:44.198Z,34.23
2018-09-17T13:34:44.159Z,34.20
2018-09-17T13:35:44.151Z,34.05
2018-09-17T13:36:44.149Z,33.89
2018-09-17T13:37:44.130Z,34.00
2018-09-17T13:38:44.147Z,33.90
2018-09-17T13:39:44.114Z,34.13
2018-09-17T13:40:44.097Z,34.17
2018-09-17T13:41:44.090Z,34.27
2018-09-17T13:42:44.094Z,34.04
2018-09-17T13:43:44.064Z,33.49
2018-09-17T13:44:44.198Z,32.86
2018-09-17T13:45:44.053Z,32.59
2018-09-17T13:46:44.046Z,32.59
2018-09-17T13:47:44.029Z,32.48
2018-09-17T13:48:44.013Z,32.44
2018-09-17T13:49:44.008Z,32.21
2018-09-17T13:50:44.038Z,32.15
2018-09-17T13:51:44.001Z,32.24
2018-09-17T13:52:43.992Z,32.25
2018-09-17T13:53:43.970Z,32.15
2018-09-17T13:54:43.955Z,32.29
2018-09-17T13:55:43.942Z,32.29
2018-09-17T13:56:43.949Z,32.25
2018-09-17T13:57:43.927Z,32.02
2018-09-17T13:58:43.906Z,31.87
2018-09-17T13:59:43.904Z,31.75
2018-09-17T14:00:43.896Z,31.92
2018-09-17T14:01:43.952Z,31.93
2018-09-17T14:02:43.877Z,31.96
2018-09-17T14:03:43.867Z,31.79
2018-09-17T14:04:43.844Z,31.88
2018-09-17T14:05:43.840Z,31.96
2018-09-17T14:06:43.850Z,31.85
2018-09-17T14:07:43.826Z,31.75
2018-09-17T14:08:43.805Z,31.72
2018-09-17T14:09:43.804Z,31.80
2018-09-17T14:10:43.788Z,31.80
2018-09-17T14:11:43.796Z,32.02
2018-09-17T14:12:43.767Z,32.00
2018-09-17T14:13:43.755Z,31.95
2018-09-17T14:14:43.757Z,32.02
2018-09-17T14:15:43.733Z,32.03
2018-09-17T14:16:43.746Z,31.84
2018-09-17T14:17:43.765Z,31.96
2018-09-17T14:18:43.697Z,31.98
2018-09-17T14:19:43.695Z,31.99
2018-09-17T14:20:43.677Z,31.79
2018-09-17T14:21:43.681Z,31.87
2018-09-17T14:22:43.663Z,31.84
2018-09-17T14:23:43.668Z,31.91
2018-09-17T14:24:43.640Z,32.02
2018-09-17T14:25:43.637Z,32.11
2018-09-17T14:26:43.617Z,32.07
2018-09-17T14:27:43.640Z,32.14
2018-09-17T14:28:43.648Z,31.99
2018-09-17T14:29:43.583Z,31.91
2018-09-17T14:30:43.569Z,31.73
2018-09-17T14:31:43.570Z,31.53
2018-09-17T14:32:43.619Z,31.64
2018-09-17T14:33:43.570Z,31.70
2018-09-17T14:34:43.559Z,31.72
2018-09-17T14:35:43.524Z,31.85
2018-09-17T14:36:43.507Z,31.60
2018-09-17T14:37:43.509Z,31.58
2018-09-17T14:38:43.523Z,31.60
2018-09-17T14:39:43.478Z,31.57
2018-09-17T14:40:43.473Z,31.57
2018-09-17T14:41:43.477Z,31.40
2018-09-17T14:42:43.446Z,31.31
2018-09-17T14:43:43.491Z,31.42
2018-09-17T14:44:43.446Z,31.20
2018-09-17T14:45:43.420Z,31.02
2018-09-17T14:46:43.409Z,30.81
2018-09-17T14:47:43.406Z,30.71
2018-09-17T14:48:43.382Z,30.59
2018-09-17T14:49:43.408Z,30.53
2018-09-17T14:50:43.362Z,30.50
2018-09-17T14:51:43.354Z,30.45
2018-09-17T14:52:43.338Z,30.26
2018-09-17T14:53:43.332Z,30.36
2018-09-17T14:54:43.416Z,30.21
2018-09-17T14:55:43.339Z,30.14
2018-09-17T14:56:43.326Z,30.08
2018-09-17T14:57:43.284Z,29.96
2018-09-17T14:58:43.274Z,29.86
2018-09-17T14:59:43.261Z,29.87
2018-09-17T15:00:43.281Z,29.81
2018-09-17T15:01:43.335Z,29.70
2018-09-17T15:02:43.233Z,29.66
2018-09-17T15:03:43.216Z,29.49
2018-09-17T15:04:43.223Z,29.45
2018-09-17T15:05:43.191Z,29.43
2018-09-17T15:06:43.219Z,29.22
2018-09-17T15:07:43.183Z,28.96
2018-09-17T15:08:43.304Z,28.93
2018-09-17T15:09:43.156Z,28.77
2018-09-17T15:10:43.137Z,28.80
2018-09-17T15:11:43.134Z,28.66
2018-09-17T15:12:43.157Z,28.53
2018-09-17T15:13:43.128Z,28.63
2018-09-17T15:14:43.099Z,28.56
2018-09-17T15:15:43.093Z,28.54
2018-09-17T15:16:43.072Z,28.33
2018-09-17T15:17:43.063Z,28.26
2018-09-17T15:18:43.076Z,27.98
2018-09-17T15:19:43.036Z,27.95
2018-09-17T15:20:43.050Z,27.91
2018-09-17T15:21:43.030Z,27.73
2018-09-17T15:22:43.015Z,27.53
2018-09-17T15:23:43.069Z,27.26
2018-09-17T15:24:42.982Z,27.29
2018-09-17T15:25:42.979Z,27.17
2018-09-17T15:26:42.972Z,27.19
2018-09-17T15:27:42.945Z,27.21
2018-09-17T15:28:42.963Z,27.05
2018-09-17T15:29:42.962Z,27.04
2018-09-17T15:30:42.933Z,26.99
2018-09-17T15:31:42.903Z,26.98
2018-09-17T15:32:42.895Z,27.02
2018-09-17T15:33:42.977Z,26.98
2018-09-17T15:34:42.867Z,26.87
2018-09-17T15:35:42.900Z,26.84
2018-09-17T15:36:42.867Z,26.95
2018-09-17T15:37:42.840Z,26.77
2018-09-17T15:38:42.854Z,26.83
2018-09-17T15:39:42.842Z,26.77
2018-09-17T15:40:42.879Z,26.73
2018-09-17T15:41:42.811Z,26.62
2018-09-17T15:42:42.801Z,26.68
2018-09-17T15:43:42.770Z,26.59
2018-09-17T15:44:42.767Z,26.54
2018-09-17T15:45:42.750Z,26.47
2018-09-17T15:46:42.829Z,26.46
2018-09-17T15:47:42.722Z,26.42
2018-09-17T15:48:42.724Z,26.54